Gazi — 9HA2542 — position and weather

sailwx.info

Track history (hours):
 
Tides and Currents Weather Stations Pressure Air Temp Water Temp Dewpoint Dewpoint Depression Visibility Wind Speed Wind Dir Waves Ship Positions

Gazi

Last reported at 2015-Jun-25 14:12 UTC. Time now 2015-Jun-30 12:46 UTC.
Position N 34°30' E 034°01'.

Length 153 m; draft 9.7 m.

Type: Ship. MMSI: 248841000.

Date/timePositionNaut miles runAvg speedWind from/ knotsBaromVisibWave heightAir tempDewpointWater temp
2015-Jun-25 14:12N 34°30' E 034°01'913.1
2015-Jun-25 13:33N 34°30' E 033°50'1313.4
2015-Jun-25 12:33N 34°31' E 033°34'1313.2
2015-Jun-25 11:33N 34°31' E 033°18'1312.9
2015-Jun-25 10:33N 34°31' E 033°02'1312.8
2015-Jun-25 09:33N 34°34' E 032°47'1212.5
2015-Jun-25 08:33N 34°37' E 032°33'23712.5
2015-Jun-24 13:33N 35°47' E 027°55'13912.4
2015-Jun-24 02:20N 37°28' E 025°56'  
2015-Jun-20 20:30N 44°46' E 030°30'1512.2
2015-Jun-20 19:18N 44°59' E 030°36'2812.4
2015-Jun-20 17:05N 45°26' E 030°47'75 8.6
2015-Jun-20 08:18N 46°35' E 031°31'6 8.2
2015-Jun-20 07:33N 46°36' E 031°40'8 8.3
2015-Jun-20 06:33N 46°37' E 031°52'8 7.6
2015-Jun-20 05:33N 46°44' E 031°56'7 7.3
2015-Jun-20 04:33N 46°51' E 031°57'6 5.9
2015-Jun-20 03:33N 46°57' E 032°01'0 0.1
2015-Jun-20 02:33N 46°56' E 032°01'0 0.0
2015-Jun-20 01:33N 46°56' E 032°01'0 0.0
2015-Jun-20 00:33N 46°56' E 032°01'0 0.0
2015-Jun-19 23:33N 46°56' E 032°00'0 0.0
2015-Jun-19 22:33N 46°56' E 032°00'0 0.0
2015-Jun-19 21:32N 46°56' E 032°00'0 0.0
2015-Jun-19 20:32N 46°56' E 032°00'0 0.0
2015-Jun-19 19:32N 46°57' E 032°00'0 0.1
2015-Jun-19 18:32N 46°57' E 032°00'0 0.4
2015-Jun-19 17:32N 46°57' E 032°01'0 0.0
2015-Jun-19 16:32N 46°57' E 032°01'0 0.0
2015-Jun-19 15:32N 46°57' E 032°01'0 0.0
2015-Jun-19 14:32N 46°57' E 032°01'0 0.0
2015-Jun-19 13:32N 46°57' E 032°01'0 0.0
2015-Jun-19 12:32N 46°57' E 032°01'0 0.0
2015-Jun-19 11:32N 46°57' E 032°01'0 0.0
2015-Jun-19 10:33N 46°57' E 032°01'0 0.0
2015-Jun-19 09:33N 46°57' E 032°01'0 0.0
2015-Jun-19 08:33N 46°57' E 032°01'0 0.0
2015-Jun-19 07:33N 46°57' E 032°01'0 0.0
2015-Jun-19 06:33N 46°57' E 032°01'0 0.0
2015-Jun-19 05:33N 46°57' E 032°01'0 0.0
2015-Jun-19 04:33N 46°57' E 032°01'0 0.0
2015-Jun-19 03:33N 46°57' E 032°01'0 0.0
2015-Jun-19 02:33N 46°57' E 032°01'0 0.0
2015-Jun-19 01:31N 46°57' E 032°01'0 0.0
2015-Jun-19 00:33N 46°57' E 032°01'0 0.0
2015-Jun-18 23:33N 46°57' E 032°01'0 0.0
2015-Jun-18 22:33N 46°57' E 032°01'0 0.0
2015-Jun-18 21:33N 46°57' E 032°01'0 0.0
2015-Jun-18 20:33N 46°57' E 032°01'0 0.0
2015-Jun-18 19:33N 46°57' E 032°01'0 0.0
2015-Jun-18 18:33N 46°57' E 032°01'0 0.0
2015-Jun-18 17:33N 46°57' E 032°01'0 0.0
2015-Jun-18 16:33N 46°57' E 032°01'0 0.0
2015-Jun-18 15:33N 46°57' E 032°01'0 0.0
2015-Jun-18 14:33N 46°57' E 032°01'0 0.0
2015-Jun-18 13:33N 46°57' E 032°01'0 0.0
2015-Jun-18 12:31N 46°57' E 032°01'0 0.0
2015-Jun-18 11:33N 46°57' E 032°01'0 0.0
2015-Jun-18 10:33N 46°57' E 032°01'0 0.0
2015-Jun-18 09:33N 46°57' E 032°01'0 0.0
2015-Jun-18 08:33N 46°57' E 032°01'0 0.0
2015-Jun-18 07:33N 46°57' E 032°01'0 0.0
2015-Jun-18 06:33N 46°57' E 032°01'0 0.0
2015-Jun-18 05:33N 46°57' E 032°01'0 0.0
2015-Jun-18 04:33N 46°57' E 032°01'0 0.0
2015-Jun-18 03:33N 46°57' E 032°01'0 0.0
2015-Jun-18 02:33N 46°57' E 032°01'0 0.0
2015-Jun-18 01:33N 46°57' E 032°01'0 0.0
2015-Jun-18 00:33N 46°57' E 032°01'0 0.0
2015-Jun-17 23:33N 46°57' E 032°01'0 0.0
2015-Jun-17 22:31N 46°57' E 032°01'0 0.0
2015-Jun-17 21:31N 46°57' E 032°01'0 0.0
2015-Jun-17 20:33N 46°57' E 032°01'2 1.6
2015-Jun-17 19:34N 46°55' E 032°01'9 9.4
2015-Jun-17 18:33N 46°47' E 031°53'10 9.5
2015-Jun-17 17:34N 46°38' E 031°54'1111.3
2015-Jun-17 16:33N 46°35' E 031°38'  
Track history (hours):
 
Tides and Currents Weather Stations Pressure Air Temp Water Temp Dewpoint Dewpoint Depression Visibility Wind Speed Wind Dir Waves Ship Positions

Gazi

Last reported at 2015-Jun-25 14:12 UTC. Time now 2015-Jun-30 12:46 UTC.
Position N 34°30' E 034°01'.

Length 153 m; draft 9.7 m.

Type: Ship. MMSI: 248841000.

Date/timePositionNaut miles runAvg speedWind from/ knotsBaromVisibWave heightAir tempDewpointWater temp
2015-Jun-25 14:12N 34°30' E 034°01'913.1
2015-Jun-25 13:33N 34°30' E 033°50'1313.4
2015-Jun-25 12:33N 34°31' E 033°34'1313.2
2015-Jun-25 11:33N 34°31' E 033°18'1312.9
2015-Jun-25 10:33N 34°31' E 033°02'1312.8
2015-Jun-25 09:33N 34°34' E 032°47'1212.5
2015-Jun-25 08:33N 34°37' E 032°33'23712.5
2015-Jun-24 13:33N 35°47' E 027°55'13912.4
2015-Jun-24 02:20N 37°28' E 025°56'  
2015-Jun-20 20:30N 44°46' E 030°30'1512.2
2015-Jun-20 19:18N 44°59' E 030°36'2812.4
2015-Jun-20 17:05N 45°26' E 030°47'75 8.6
2015-Jun-20 08:18N 46°35' E 031°31'6 8.2
2015-Jun-20 07:33N 46°36' E 031°40'8 8.3
2015-Jun-20 06:33N 46°37' E 031°52'8 7.6
2015-Jun-20 05:33N 46°44' E 031°56'7 7.3
2015-Jun-20 04:33N 46°51' E 031°57'6 5.9
2015-Jun-20 03:33N 46°57' E 032°01'0 0.1
2015-Jun-20 02:33N 46°56' E 032°01'0 0.0
2015-Jun-20 01:33N 46°56' E 032°01'0 0.0
2015-Jun-20 00:33N 46°56' E 032°01'0 0.0
2015-Jun-19 23:33N 46°56' E 032°00'0 0.0
2015-Jun-19 22:33N 46°56' E 032°00'0 0.0
2015-Jun-19 21:32N 46°56' E 032°00'0 0.0
2015-Jun-19 20:32N 46°56' E 032°00'0 0.0
2015-Jun-19 19:32N 46°57' E 032°00'0 0.1
2015-Jun-19 18:32N 46°57' E 032°00'0 0.4
2015-Jun-19 17:32N 46°57' E 032°01'0 0.0
2015-Jun-19 16:32N 46°57' E 032°01'0 0.0
2015-Jun-19 15:32N 46°57' E 032°01'0 0.0
2015-Jun-19 14:32N 46°57' E 032°01'0 0.0
2015-Jun-19 13:32N 46°57' E 032°01'0 0.0
2015-Jun-19 12:32N 46°57' E 032°01'0 0.0
2015-Jun-19 11:32N 46°57' E 032°01'0 0.0
2015-Jun-19 10:33N 46°57' E 032°01'0 0.0
2015-Jun-19 09:33N 46°57' E 032°01'0 0.0
2015-Jun-19 08:33N 46°57' E 032°01'0 0.0
2015-Jun-19 07:33N 46°57' E 032°01'0 0.0
2015-Jun-19 06:33N 46°57' E 032°01'0 0.0
2015-Jun-19 05:33N 46°57' E 032°01'0 0.0
2015-Jun-19 04:33N 46°57' E 032°01'0 0.0
2015-Jun-19 03:33N 46°57' E 032°01'0 0.0
2015-Jun-19 02:33N 46°57' E 032°01'0 0.0
2015-Jun-19 01:31N 46°57' E 032°01'0 0.0
2015-Jun-19 00:33N 46°57' E 032°01'0 0.0
2015-Jun-18 23:33N 46°57' E 032°01'0 0.0
2015-Jun-18 22:33N 46°57' E 032°01'0 0.0
2015-Jun-18 21:33N 46°57' E 032°01'0 0.0
2015-Jun-18 20:33N 46°57' E 032°01'0 0.0
2015-Jun-18 19:33N 46°57' E 032°01'0 0.0
2015-Jun-18 18:33N 46°57' E 032°01'0 0.0
2015-Jun-18 17:33N 46°57' E 032°01'0 0.0
2015-Jun-18 16:33N 46°57' E 032°01'0 0.0
2015-Jun-18 15:33N 46°57' E 032°01'0 0.0
2015-Jun-18 14:33N 46°57' E 032°01'0 0.0
2015-Jun-18 13:33N 46°57' E 032°01'0 0.0
2015-Jun-18 12:31N 46°57' E 032°01'0 0.0
2015-Jun-18 11:33N 46°57' E 032°01'0 0.0
2015-Jun-18 10:33N 46°57' E 032°01'0 0.0
2015-Jun-18 09:33N 46°57' E 032°01'0 0.0
2015-Jun-18 08:33N 46°57' E 032°01'0 0.0
2015-Jun-18 07:33N 46°57' E 032°01'0 0.0
2015-Jun-18 06:33N 46°57' E 032°01'0 0.0
2015-Jun-18 05:33N 46°57' E 032°01'0 0.0
2015-Jun-18 04:33N 46°57' E 032°01'0 0.0
2015-Jun-18 03:33N 46°57' E 032°01'0 0.0
2015-Jun-18 02:33N 46°57' E 032°01'0 0.0
2015-Jun-18 01:33N 46°57' E 032°01'0 0.0
2015-Jun-18 00:33N 46°57' E 032°01'0 0.0
2015-Jun-17 23:33N 46°57' E 032°01'0 0.0
2015-Jun-17 22:31N 46°57' E 032°01'0 0.0
2015-Jun-17 21:31N 46°57' E 032°01'0 0.0
2015-Jun-17 20:33N 46°57' E 032°01'2 1.6
2015-Jun-17 19:34N 46°55' E 032°01'9 9.4
2015-Jun-17 18:33N 46°47' E 031°53'10 9.5
2015-Jun-17 17:34N 46°38' E 031°54'1111.3
2015-Jun-17 16:33N 46°35' E 031°38'  

Dump ship's entire track history